sensor_id;sensor_type;location;lat;lon;timestamp;P1;durP1;ratioP1;P2;durP2;ratioP2
48042;SDS011;33988;47.992;8.820;2023-04-15T00:01:44;2.88;;;1.23;;
48042;SDS011;33988;47.992;8.820;2023-04-15T00:04:13;3.40;;;1.30;;
48042;SDS011;33988;47.992;8.820;2023-04-15T00:06:51;1.70;;;1.10;;
48042;SDS011;33988;47.992;8.820;2023-04-15T00:09:20;4.18;;;1.50;;
48042;SDS011;33988;47.992;8.820;2023-04-15T00:11:47;1.90;;;1.23;;
48042;SDS011;33988;47.992;8.820;2023-04-15T00:14:15;2.83;;;1.67;;
48042;SDS011;33988;47.992;8.820;2023-04-15T00:16:42;2.38;;;1.52;;
48042;SDS011;33988;47.992;8.820;2023-04-15T00:19:09;2.25;;;1.70;;
48042;SDS011;33988;47.992;8.820;2023-04-15T00:21:37;1.95;;;1.40;;
48042;SDS011;33988;47.992;8.820;2023-04-15T00:24:04;2.63;;;1.75;;
48042;SDS011;33988;47.992;8.820;2023-04-15T00:26:31;4.13;;;1.75;;
48042;SDS011;33988;47.992;8.820;2023-04-15T00:28:58;2.70;;;1.70;;
48042;SDS011;33988;47.992;8.820;2023-04-15T00:31:25;2.85;;;1.70;;
48042;SDS011;33988;47.992;8.820;2023-04-15T00:33:52;3.38;;;1.75;;
48042;SDS011;33988;47.992;8.820;2023-04-15T00:36:24;2.97;;;1.60;;
48042;SDS011;33988;47.992;8.820;2023-04-15T00:41:20;1.70;;;1.23;;
48042;SDS011;33988;47.992;8.820;2023-04-15T00:43:48;2.25;;;1.38;;
48042;SDS011;33988;47.992;8.820;2023-04-15T00:46:15;2.35;;;1.40;;
48042;SDS011;33988;47.992;8.820;2023-04-15T00:48:46;7.77;;;1.50;;
48042;SDS011;33988;47.992;8.820;2023-04-15T00:51:19;4.05;;;1.35;;
48042;SDS011;33988;47.992;8.820;2023-04-15T00:53:46;2.65;;;1.20;;
48042;SDS011;33988;47.992;8.820;2023-04-15T00:56:17;1.92;;;1.13;;
48042;SDS011;33988;47.992;8.820;2023-04-15T00:58:50;3.00;;;1.10;;
48042;SDS011;33988;47.992;8.820;2023-04-15T01:01:20;3.63;;;1.13;;
48042;SDS011;33988;47.992;8.820;2023-04-15T01:03:53;2.22;;;1.15;;
48042;SDS011;33988;47.992;8.820;2023-04-15T01:06:24;1.80;;;1.17;;
48042;SDS011;33988;47.992;8.820;2023-04-15T01:08:53;2.15;;;1.10;;
48042;SDS011;33988;47.992;8.820;2023-04-15T01:11:21;2.50;;;1.30;;
48042;SDS011;33988;47.992;8.820;2023-04-15T01:13:49;1.83;;;1.35;;
48042;SDS011;33988;47.992;8.820;2023-04-15T01:16:20;2.42;;;1.20;;
48042;SDS011;33988;47.992;8.820;2023-04-15T01:18:47;2.75;;;1.33;;
48042;SDS011;33988;47.992;8.820;2023-04-15T01:21:19;5.20;;;1.65;;
48042;SDS011;33988;47.992;8.820;2023-04-15T01:23:47;1.27;;;0.93;;
48042;SDS011;33988;47.992;8.820;2023-04-15T01:26:16;2.10;;;1.30;;
48042;SDS011;33988;47.992;8.820;2023-04-15T01:28:44;2.17;;;1.08;;
48042;SDS011;33988;47.992;8.820;2023-04-15T01:31:14;2.22;;;1.35;;
48042;SDS011;33988;47.992;8.820;2023-04-15T01:33:41;3.28;;;1.40;;
48042;SDS011;33988;47.992;8.820;2023-04-15T01:36:09;2.47;;;1.20;;
48042;SDS011;33988;47.992;8.820;2023-04-15T01:38:38;2.28;;;1.30;;
48042;SDS011;33988;47.992;8.820;2023-04-15T01:41:06;2.05;;;1.23;;
48042;SDS011;33988;47.992;8.820;2023-04-15T01:43:33;3.17;;;1.58;;
48042;SDS011;33988;47.992;8.820;2023-04-15T01:46:06;2.45;;;1.30;;
48042;SDS011;33988;47.992;8.820;2023-04-15T01:48:33;2.60;;;1.42;;
48042;SDS011;33988;47.992;8.820;2023-04-15T01:51:00;3.88;;;1.05;;
48042;SDS011;33988;47.992;8.820;2023-04-15T01:53:27;2.70;;;1.65;;
48042;SDS011;33988;47.992;8.820;2023-04-15T01:55:54;1.88;;;1.20;;
48042;SDS011;33988;47.992;8.820;2023-04-15T01:58:21;1.90;;;1.40;;
48042;SDS011;33988;47.992;8.820;2023-04-15T02:00:48;2.92;;;1.40;;
48042;SDS011;33988;47.992;8.820;2023-04-15T02:03:15;3.63;;;1.65;;
48042;SDS011;33988;47.992;8.820;2023-04-15T02:05:45;1.98;;;1.40;;
48042;SDS011;33988;47.992;8.820;2023-04-15T02:08:16;1.73;;;1.30;;
48042;SDS011;33988;47.992;8.820;2023-04-15T02:10:42;2.78;;;1.40;;
48042;SDS011;33988;47.992;8.820;2023-04-15T02:13:09;5.80;;;1.20;;
48042;SDS011;33988;47.992;8.820;2023-04-15T02:15:36;1.65;;;1.08;;
48042;SDS011;33988;47.992;8.820;2023-04-15T02:18:03;1.92;;;1.20;;
48042;SDS011;33988;47.992;8.820;2023-04-15T02:20:33;2.75;;;1.38;;
48042;SDS011;33988;47.992;8.820;2023-04-15T02:23:01;0.98;;;0.90;;
48042;SDS011;33988;47.992;8.820;2023-04-15T02:25:28;4.60;;;1.80;;
48042;SDS011;33988;47.992;8.820;2023-04-15T02:27:57;3.78;;;1.30;;
48042;SDS011;33988;47.992;8.820;2023-04-15T02:30:26;2.70;;;1.40;;
48042;SDS011;33988;47.992;8.820;2023-04-15T02:32:55;3.42;;;1.15;;
48042;SDS011;33988;47.992;8.820;2023-04-15T02:35:25;2.83;;;1.50;;
48042;SDS011;33988;47.992;8.820;2023-04-15T02:37:54;2.78;;;1.27;;
48042;SDS011;33988;47.992;8.820;2023-04-15T02:40:26;1.63;;;1.30;;
48042;SDS011;33988;47.992;8.820;2023-04-15T02:42:53;1.80;;;0.98;;
48042;SDS011;33988;47.992;8.820;2023-04-15T02:45:22;2.85;;;1.30;;
48042;SDS011;33988;47.992;8.820;2023-04-15T02:47:53;1.30;;;1.00;;
48042;SDS011;33988;47.992;8.820;2023-04-15T02:50:20;2.55;;;1.50;;
48042;SDS011;33988;47.992;8.820;2023-04-15T02:52:48;1.95;;;1.13;;
48042;SDS011;33988;47.992;8.820;2023-04-15T02:55:17;2.80;;;1.25;;
48042;SDS011;33988;47.992;8.820;2023-04-15T02:57:44;1.52;;;1.10;;
48042;SDS011;33988;47.992;8.820;2023-04-15T03:00:11;2.65;;;1.45;;
48042;SDS011;33988;47.992;8.820;2023-04-15T03:02:39;3.25;;;1.10;;
48042;SDS011;33988;47.992;8.820;2023-04-15T03:05:11;2.30;;;1.20;;
48042;SDS011;33988;47.992;8.820;2023-04-15T03:07:42;2.58;;;1.10;;
48042;SDS011;33988;47.992;8.820;2023-04-15T03:10:11;2.13;;;1.17;;
48042;SDS011;33988;47.992;8.820;2023-04-15T03:12:39;1.08;;;0.93;;
48042;SDS011;33988;47.992;8.820;2023-04-15T03:15:06;1.45;;;1.00;;
48042;SDS011;33988;47.992;8.820;2023-04-15T03:17:34;2.78;;;1.08;;
48042;SDS011;33988;47.992;8.820;2023-04-15T03:20:02;3.67;;;1.20;;
48042;SDS011;33988;47.992;8.820;2023-04-15T03:22:31;2.13;;;1.40;;
48042;SDS011;33988;47.992;8.820;2023-04-15T03:24:58;2.20;;;1.05;;
48042;SDS011;33988;47.992;8.820;2023-04-15T03:27:25;2.30;;;1.05;;
48042;SDS011;33988;47.992;8.820;2023-04-15T03:29:52;3.90;;;1.08;;
48042;SDS011;33988;47.992;8.820;2023-04-15T03:32:22;2.40;;;1.10;;
48042;SDS011;33988;47.992;8.820;2023-04-15T03:34:48;2.05;;;1.05;;
48042;SDS011;33988;47.992;8.820;2023-04-15T03:37:15;1.92;;;1.45;;
48042;SDS011;33988;47.992;8.820;2023-04-15T03:39:45;1.98;;;1.10;;
48042;SDS011;33988;47.992;8.820;2023-04-15T03:42:12;2.38;;;1.10;;
48042;SDS011;33988;47.992;8.820;2023-04-15T03:44:43;1.52;;;1.10;;
48042;SDS011;33988;47.992;8.820;2023-04-15T03:47:13;2.38;;;1.40;;
48042;SDS011;33988;47.992;8.820;2023-04-15T03:49:40;2.63;;;1.38;;
48042;SDS011;33988;47.992;8.820;2023-04-15T03:52:09;4.18;;;1.58;;
48042;SDS011;33988;47.992;8.820;2023-04-15T03:54:38;2.45;;;1.40;;
48042;SDS011;33988;47.992;8.820;2023-04-15T03:57:05;2.85;;;1.30;;
48042;SDS011;33988;47.992;8.820;2023-04-15T03:59:32;2.50;;;1.55;;
48042;SDS011;33988;47.992;8.820;2023-04-15T04:02:01;2.40;;;1.30;;
48042;SDS011;33988;47.992;8.820;2023-04-15T04:04:28;2.20;;;1.25;;
48042;SDS011;33988;47.992;8.820;2023-04-15T04:06:55;4.85;;;1.90;;
48042;SDS011;33988;47.992;8.820;2023-04-15T04:09:22;4.63;;;1.65;;
48042;SDS011;33988;47.992;8.820;2023-04-15T04:11:52;5.53;;;1.58;;
48042;SDS011;33988;47.992;8.820;2023-04-15T04:14:22;5.88;;;1.98;;
48042;SDS011;33988;47.992;8.820;2023-04-15T04:16:54;4.05;;;1.70;;
48042;SDS011;33988;47.992;8.820;2023-04-15T04:19:24;5.00;;;1.50;;
48042;SDS011;33988;47.992;8.820;2023-04-15T04:21:55;2.03;;;1.43;;
48042;SDS011;33988;47.992;8.820;2023-04-15T04:24:22;2.63;;;1.48;;
48042;SDS011;33988;47.992;8.820;2023-04-15T04:26:49;2.72;;;1.42;;
48042;SDS011;33988;47.992;8.820;2023-04-15T04:29:16;2.70;;;1.42;;
48042;SDS011;33988;47.992;8.820;2023-04-15T04:31:43;3.40;;;1.65;;
48042;SDS011;33988;47.992;8.820;2023-04-15T04:34:10;2.72;;;1.58;;
48042;SDS011;33988;47.992;8.820;2023-04-15T04:36:37;3.75;;;1.67;;
48042;SDS011;33988;47.992;8.820;2023-04-15T04:39:04;3.92;;;1.33;;
48042;SDS011;33988;47.992;8.820;2023-04-15T04:41:30;3.45;;;1.30;;
48042;SDS011;33988;47.992;8.820;2023-04-15T04:43:57;2.13;;;1.48;;
48042;SDS011;33988;47.992;8.820;2023-04-15T04:46:25;3.60;;;1.65;;
48042;SDS011;33988;47.992;8.820;2023-04-15T04:48:54;3.60;;;1.60;;
48042;SDS011;33988;47.992;8.820;2023-04-15T04:51:21;2.33;;;1.73;;
48042;SDS011;33988;47.992;8.820;2023-04-15T04:53:48;4.38;;;1.63;;
48042;SDS011;33988;47.992;8.820;2023-04-15T04:56:15;2.28;;;1.48;;
48042;SDS011;33988;47.992;8.820;2023-04-15T04:58:42;2.72;;;1.45;;
48042;SDS011;33988;47.992;8.820;2023-04-15T05:01:11;5.70;;;1.70;;
48042;SDS011;33988;47.992;8.820;2023-04-15T05:03:41;2.58;;;1.70;;
48042;SDS011;33988;47.992;8.820;2023-04-15T05:06:08;1.98;;;1.33;;
48042;SDS011;33988;47.992;8.820;2023-04-15T05:08:35;2.65;;;1.30;;
48042;SDS011;33988;47.992;8.820;2023-04-15T05:11:05;1.80;;;1.25;;
48042;SDS011;33988;47.992;8.820;2023-04-15T05:13:32;1.75;;;1.20;;
48042;SDS011;33988;47.992;8.820;2023-04-15T05:15:59;3.58;;;1.35;;
48042;SDS011;33988;47.992;8.820;2023-04-15T05:18:28;2.63;;;1.20;;
48042;SDS011;33988;47.992;8.820;2023-04-15T05:20:55;2.90;;;1.58;;
48042;SDS011;33988;47.992;8.820;2023-04-15T05:23:23;1.40;;;1.25;;
48042;SDS011;33988;47.992;8.820;2023-04-15T05:25:50;2.83;;;1.35;;
48042;SDS011;33988;47.992;8.820;2023-04-15T05:28:17;2.40;;;1.50;;
48042;SDS011;33988;47.992;8.820;2023-04-15T05:30:44;2.80;;;1.60;;
48042;SDS011;33988;47.992;8.820;2023-04-15T05:33:13;2.92;;;1.60;;
48042;SDS011;33988;47.992;8.820;2023-04-15T05:35:40;2.20;;;1.58;;
48042;SDS011;33988;47.992;8.820;2023-04-15T05:38:07;2.20;;;1.60;;
48042;SDS011;33988;47.992;8.820;2023-04-15T05:40:36;2.47;;;1.45;;
48042;SDS011;33988;47.992;8.820;2023-04-15T05:43:05;1.83;;;1.40;;
48042;SDS011;33988;47.992;8.820;2023-04-15T05:45:32;3.22;;;1.50;;
48042;SDS011;33988;47.992;8.820;2023-04-15T05:48:02;2.90;;;1.52;;
48042;SDS011;33988;47.992;8.820;2023-04-15T05:50:29;5.18;;;1.45;;
48042;SDS011;33988;47.992;8.820;2023-04-15T05:52:56;1.85;;;1.50;;
48042;SDS011;33988;47.992;8.820;2023-04-15T05:55:23;4.53;;;1.65;;
48042;SDS011;33988;47.992;8.820;2023-04-15T05:57:49;2.17;;;1.60;;
48042;SDS011;33988;47.992;8.820;2023-04-15T06:00:17;1.90;;;1.30;;
48042;SDS011;33988;47.992;8.820;2023-04-15T06:02:44;4.32;;;1.88;;
48042;SDS011;33988;47.992;8.820;2023-04-15T06:05:11;1.63;;;1.30;;
48042;SDS011;33988;47.992;8.820;2023-04-15T06:07:38;2.40;;;1.50;;
48042;SDS011;33988;47.992;8.820;2023-04-15T06:10:06;2.53;;;1.27;;
48042;SDS011;33988;47.992;8.820;2023-04-15T06:12:33;1.58;;;1.20;;
48042;SDS011;33988;47.992;8.820;2023-04-15T06:15:01;4.22;;;1.70;;
48042;SDS011;33988;47.992;8.820;2023-04-15T06:17:28;4.55;;;1.73;;
48042;SDS011;33988;47.992;8.820;2023-04-15T06:19:59;3.58;;;2.03;;
48042;SDS011;33988;47.992;8.820;2023-04-15T06:22:26;7.55;;;2.00;;
48042;SDS011;33988;47.992;8.820;2023-04-15T06:24:53;2.58;;;1.75;;
48042;SDS011;33988;47.992;8.820;2023-04-15T06:27:20;3.65;;;1.80;;
48042;SDS011;33988;47.992;8.820;2023-04-15T06:29:48;4.85;;;1.92;;
48042;SDS011;33988;47.992;8.820;2023-04-15T06:32:15;3.42;;;1.88;;
48042;SDS011;33988;47.992;8.820;2023-04-15T06:34:42;3.17;;;1.85;;
48042;SDS011;33988;47.992;8.820;2023-04-15T06:37:11;3.83;;;2.08;;
48042;SDS011;33988;47.992;8.820;2023-04-15T06:39:43;4.20;;;2.00;;
48042;SDS011;33988;47.992;8.820;2023-04-15T06:42:15;3.80;;;1.88;;
48042;SDS011;33988;47.992;8.820;2023-04-15T06:44:45;5.30;;;2.00;;
48042;SDS011;33988;47.992;8.820;2023-04-15T06:47:12;3.38;;;1.95;;
48042;SDS011;33988;47.992;8.820;2023-04-15T06:49:39;3.95;;;1.75;;
48042;SDS011;33988;47.992;8.820;2023-04-15T06:52:09;6.65;;;2.28;;
48042;SDS011;33988;47.992;8.820;2023-04-15T06:54:38;4.63;;;1.92;;
48042;SDS011;33988;47.992;8.820;2023-04-15T06:57:07;4.30;;;2.47;;
48042;SDS011;33988;47.992;8.820;2023-04-15T06:59:37;4.00;;;2.10;;
48042;SDS011;33988;47.992;8.820;2023-04-15T07:02:04;3.63;;;2.38;;
48042;SDS011;33988;47.992;8.820;2023-04-15T07:04:33;3.08;;;2.22;;
48042;SDS011;33988;47.992;8.820;2023-04-15T07:07:02;6.60;;;1.92;;
48042;SDS011;33988;47.992;8.820;2023-04-15T07:09:29;4.80;;;2.50;;
48042;SDS011;33988;47.992;8.820;2023-04-15T07:11:56;6.65;;;2.75;;
48042;SDS011;33988;47.992;8.820;2023-04-15T07:14:29;9.07;;;3.67;;
48042;SDS011;33988;47.992;8.820;2023-04-15T07:16:59;5.78;;;3.40;;
48042;SDS011;33988;47.992;8.820;2023-04-15T07:19:26;7.28;;;3.88;;
48042;SDS011;33988;47.992;8.820;2023-04-15T07:21:52;6.18;;;3.47;;
48042;SDS011;33988;47.992;8.820;2023-04-15T07:24:19;8.07;;;3.45;;
48042;SDS011;33988;47.992;8.820;2023-04-15T07:26:52;6.68;;;3.45;;
48042;SDS011;33988;47.992;8.820;2023-04-15T07:29:25;8.35;;;3.75;;
48042;SDS011;33988;47.992;8.820;2023-04-15T07:31:55;7.97;;;3.88;;
48042;SDS011;33988;47.992;8.820;2023-04-15T07:34:22;8.98;;;4.22;;
48042;SDS011;33988;47.992;8.820;2023-04-15T07:36:49;8.30;;;4.07;;
48042;SDS011;33988;47.992;8.820;2023-04-15T07:39:17;8.10;;;4.10;;
48042;SDS011;33988;47.992;8.820;2023-04-15T07:41:44;9.40;;;3.92;;
48042;SDS011;33988;47.992;8.820;2023-04-15T07:44:11;8.40;;;3.95;;
48042;SDS011;33988;47.992;8.820;2023-04-15T07:46:38;7.65;;;4.43;;
48042;SDS011;33988;47.992;8.820;2023-04-15T07:49:06;6.57;;;3.92;;
48042;SDS011;33988;47.992;8.820;2023-04-15T07:51:35;9.13;;;4.13;;
48042;SDS011;33988;47.992;8.820;2023-04-15T07:56:35;9.07;;;3.92;;
48042;SDS011;33988;47.992;8.820;2023-04-15T07:59:02;9.13;;;4.22;;
48042;SDS011;33988;47.992;8.820;2023-04-15T08:01:31;9.35;;;4.13;;
48042;SDS011;33988;47.992;8.820;2023-04-15T08:03:58;8.50;;;4.10;;
48042;SDS011;33988;47.992;8.820;2023-04-15T08:06:25;6.80;;;3.15;;
48042;SDS011;33988;47.992;8.820;2023-04-15T08:08:58;5.53;;;2.58;;
48042;SDS011;33988;47.992;8.820;2023-04-15T08:11:25;4.47;;;2.60;;
48042;SDS011;33988;47.992;8.820;2023-04-15T08:13:52;4.82;;;2.45;;
48042;SDS011;33988;47.992;8.820;2023-04-15T08:16:20;3.70;;;1.80;;
48042;SDS011;33988;47.992;8.820;2023-04-15T08:18:54;2.83;;;1.60;;
48042;SDS011;33988;47.992;8.820;2023-04-15T08:21:22;4.45;;;1.33;;
48042;SDS011;33988;47.992;8.820;2023-04-15T08:23:55;1.73;;;1.30;;
48042;SDS011;33988;47.992;8.820;2023-04-15T08:26:22;2.95;;;1.60;;
48042;SDS011;33988;47.992;8.820;2023-04-15T08:28:49;3.67;;;1.80;;
48042;SDS011;33988;47.992;8.820;2023-04-15T08:31:16;3.92;;;1.75;;
48042;SDS011;33988;47.992;8.820;2023-04-15T08:33:44;2.83;;;1.75;;
48042;SDS011;33988;47.992;8.820;2023-04-15T08:36:11;2.95;;;1.52;;
48042;SDS011;33988;47.992;8.820;2023-04-15T08:38:41;2.38;;;1.42;;
48042;SDS011;33988;47.992;8.820;2023-04-15T08:41:33;4.47;;;1.40;;
48042;SDS011;33988;47.992;8.820;2023-04-15T08:44:08;3.47;;;1.40;;
48042;SDS011;33988;47.992;8.820;2023-04-15T08:46:38;3.00;;;1.50;;
48042;SDS011;33988;47.992;8.820;2023-04-15T08:49:09;3.30;;;1.30;;
48042;SDS011;33988;47.992;8.820;2023-04-15T08:51:41;2.23;;;1.20;;
48042;SDS011;33988;47.992;8.820;2023-04-15T08:54:08;3.78;;;1.00;;
48042;SDS011;33988;47.992;8.820;2023-04-15T08:56:37;2.08;;;1.15;;
48042;SDS011;33988;47.992;8.820;2023-04-15T08:59:04;3.03;;;1.08;;
48042;SDS011;33988;47.992;8.820;2023-04-15T09:01:32;2.40;;;1.10;;
48042;SDS011;33988;47.992;8.820;2023-04-15T09:03:59;1.80;;;1.00;;
48042;SDS011;33988;47.992;8.820;2023-04-15T09:06:28;2.72;;;1.20;;
48042;SDS011;33988;47.992;8.820;2023-04-15T09:08:55;2.10;;;1.17;;
48042;SDS011;33988;47.992;8.820;2023-04-15T09:11:27;2.17;;;1.17;;
48042;SDS011;33988;47.992;8.820;2023-04-15T09:13:56;2.95;;;1.25;;
48042;SDS011;33988;47.992;8.820;2023-04-15T09:16:23;2.97;;;1.52;;
48042;SDS011;33988;47.992;8.820;2023-04-15T09:18:56;2.65;;;1.20;;
48042;SDS011;33988;47.992;8.820;2023-04-15T09:21:22;1.83;;;1.05;;
48042;SDS011;33988;47.992;8.820;2023-04-15T09:23:59;3.28;;;1.08;;
48042;SDS011;33988;47.992;8.820;2023-04-15T09:26:31;2.95;;;1.35;;
48042;SDS011;33988;47.992;8.820;2023-04-15T09:29:08;1.65;;;0.80;;
48042;SDS011;33988;47.992;8.820;2023-04-15T09:31:39;1.92;;;0.98;;
48042;SDS011;33988;47.992;8.820;2023-04-15T09:34:07;3.05;;;1.10;;
48042;SDS011;33988;47.992;8.820;2023-04-15T09:36:53;3.72;;;1.30;;
48042;SDS011;33988;47.992;8.820;2023-04-15T09:39:22;2.05;;;0.80;;
48042;SDS011;33988;47.992;8.820;2023-04-15T09:42:02;2.60;;;0.95;;
48042;SDS011;33988;47.992;8.820;2023-04-15T09:44:33;3.25;;;1.05;;
48042;SDS011;33988;47.992;8.820;2023-04-15T09:47:03;4.15;;;1.10;;
48042;SDS011;33988;47.992;8.820;2023-04-15T09:49:32;2.28;;;1.10;;
48042;SDS011;33988;47.992;8.820;2023-04-15T09:52:00;2.53;;;1.30;;
48042;SDS011;33988;47.992;8.820;2023-04-15T09:54:32;1.27;;;0.98;;
48042;SDS011;33988;47.992;8.820;2023-04-15T09:57:06;4.43;;;1.50;;
48042;SDS011;33988;47.992;8.820;2023-04-15T09:59:35;3.00;;;1.10;;
48042;SDS011;33988;47.992;8.820;2023-04-15T10:02:04;2.10;;;1.00;;
48042;SDS011;33988;47.992;8.820;2023-04-15T10:04:35;4.43;;;1.20;;
48042;SDS011;33988;47.992;8.820;2023-04-15T10:07:06;3.13;;;0.82;;
48042;SDS011;33988;47.992;8.820;2023-04-15T10:09:37;3.88;;;0.98;;
48042;SDS011;33988;47.992;8.820;2023-04-15T10:12:05;10.35;;;6.10;;
48042;SDS011;33988;47.992;8.820;2023-04-15T10:14:33;4.47;;;2.38;;
48042;SDS011;33988;47.992;8.820;2023-04-15T10:19:32;1.92;;;1.33;;
48042;SDS011;33988;47.992;8.820;2023-04-15T10:22:02;1.73;;;1.05;;
48042;SDS011;33988;47.992;8.820;2023-04-15T10:24:32;2.03;;;1.10;;
48042;SDS011;33988;47.992;8.820;2023-04-15T10:27:02;1.95;;;1.33;;
48042;SDS011;33988;47.992;8.820;2023-04-15T10:29:33;1.40;;;1.00;;
48042;SDS011;33988;47.992;8.820;2023-04-15T10:32:02;1.52;;;0.90;;
48042;SDS011;33988;47.992;8.820;2023-04-15T10:34:32;1.95;;;0.80;;
48042;SDS011;33988;47.992;8.820;2023-04-15T10:37:00;2.75;;;0.85;;
48042;SDS011;33988;47.992;8.820;2023-04-15T10:42:08;1.70;;;0.80;;
48042;SDS011;33988;47.992;8.820;2023-04-15T10:44:38;2.50;;;1.00;;
48042;SDS011;33988;47.992;8.820;2023-04-15T10:47:11;3.38;;;1.00;;
48042;SDS011;33988;47.992;8.820;2023-04-15T10:49:49;1.95;;;1.10;;
48042;SDS011;33988;47.992;8.820;2023-04-15T10:52:27;3.13;;;1.15;;
48042;SDS011;33988;47.992;8.820;2023-04-15T10:55:40;3.55;;;1.15;;
48042;SDS011;33988;47.992;8.820;2023-04-15T10:57:55;2.08;;;1.00;;
48042;SDS011;33988;47.992;8.820;2023-04-15T11:00:29;4.15;;;1.20;;
48042;SDS011;33988;47.992;8.820;2023-04-15T11:02:58;2.63;;;0.90;;
48042;SDS011;33988;47.992;8.820;2023-04-15T11:08:10;4.45;;;1.70;;
48042;SDS011;33988;47.992;8.820;2023-04-15T11:20:48;2.60;;;1.23;;
48042;SDS011;33988;47.992;8.820;2023-04-15T11:23:18;4.05;;;1.20;;
48042;SDS011;33988;47.992;8.820;2023-04-15T11:25:55;2.90;;;1.50;;
48042;SDS011;33988;47.992;8.820;2023-04-15T11:28:25;3.58;;;1.13;;
48042;SDS011;33988;47.992;8.820;2023-04-15T11:30:56;4.30;;;1.17;;
48042;SDS011;33988;47.992;8.820;2023-04-15T11:33:24;4.20;;;1.35;;
48042;SDS011;33988;47.992;8.820;2023-04-15T11:35:54;2.53;;;1.05;;
48042;SDS011;33988;47.992;8.820;2023-04-15T11:38:21;1.48;;;1.17;;
48042;SDS011;33988;47.992;8.820;2023-04-15T11:40:49;4.00;;;1.52;;
48042;SDS011;33988;47.992;8.820;2023-04-15T11:43:21;2.42;;;1.10;;
48042;SDS011;33988;47.992;8.820;2023-04-15T11:48:27;3.55;;;1.48;;
48042;SDS011;33988;47.992;8.820;2023-04-15T11:51:00;1.70;;;0.90;;
48042;SDS011;33988;47.992;8.820;2023-04-15T11:53:36;3.33;;;1.27;;
48042;SDS011;33988;47.992;8.820;2023-04-15T11:58:51;3.25;;;1.20;;
48042;SDS011;33988;47.992;8.820;2023-04-15T12:04:14;2.75;;;1.45;;
48042;SDS011;33988;47.992;8.820;2023-04-15T12:06:50;2.40;;;1.08;;
48042;SDS011;33988;47.992;8.820;2023-04-15T12:09:17;3.47;;;1.00;;
48042;SDS011;33988;47.992;8.820;2023-04-15T12:11:51;2.38;;;1.00;;
48042;SDS011;33988;47.992;8.820;2023-04-15T12:17:02;1.65;;;1.10;;
48042;SDS011;33988;47.992;8.820;2023-04-15T12:19:42;1.63;;;1.00;;
48042;SDS011;33988;47.992;8.820;2023-04-15T12:22:14;3.83;;;1.20;;
48042;SDS011;33988;47.992;8.820;2023-04-15T12:24:42;2.25;;;1.10;;
48042;SDS011;33988;47.992;8.820;2023-04-15T12:27:14;3.97;;;1.50;;
48042;SDS011;33988;47.992;8.820;2023-04-15T12:29:42;3.65;;;1.42;;
48042;SDS011;33988;47.992;8.820;2023-04-15T12:32:16;2.58;;;1.40;;
48042;SDS011;33988;47.992;8.820;2023-04-15T12:34:50;3.78;;;1.58;;
48042;SDS011;33988;47.992;8.820;2023-04-15T12:37:18;7.13;;;1.70;;
48042;SDS011;33988;47.992;8.820;2023-04-15T12:39:48;3.25;;;1.60;;
48042;SDS011;33988;47.992;8.820;2023-04-15T12:42:16;2.53;;;1.40;;
48042;SDS011;33988;47.992;8.820;2023-04-15T12:44:44;1.90;;;1.27;;
48042;SDS011;33988;47.992;8.820;2023-04-15T12:47:12;1.45;;;1.05;;
48042;SDS011;33988;47.992;8.820;2023-04-15T12:49:39;1.42;;;1.02;;
48042;SDS011;33988;47.992;8.820;2023-04-15T12:52:07;1.98;;;1.08;;
48042;SDS011;33988;47.992;8.820;2023-04-15T12:54:34;1.52;;;1.10;;
48042;SDS011;33988;47.992;8.820;2023-04-15T12:57:01;2.83;;;1.15;;
48042;SDS011;33988;47.992;8.820;2023-04-15T12:59:32;2.20;;;1.35;;
48042;SDS011;33988;47.992;8.820;2023-04-15T13:02:00;3.50;;;0.88;;
48042;SDS011;33988;47.992;8.820;2023-04-15T13:04:28;1.40;;;0.90;;
48042;SDS011;33988;47.992;8.820;2023-04-15T13:06:56;2.85;;;1.00;;
48042;SDS011;33988;47.992;8.820;2023-04-15T13:09:23;1.40;;;0.75;;
48042;SDS011;33988;47.992;8.820;2023-04-15T13:11:51;1.17;;;0.60;;
48042;SDS011;33988;47.992;8.820;2023-04-15T13:14:20;0.73;;;0.70;;
48042;SDS011;33988;47.992;8.820;2023-04-15T13:16:47;2.92;;;1.00;;
48042;SDS011;33988;47.992;8.820;2023-04-15T13:21:45;0.90;;;0.50;;
48042;SDS011;33988;47.992;8.820;2023-04-15T13:24:12;2.50;;;0.50;;
48042;SDS011;33988;47.992;8.820;2023-04-15T13:26:39;2.10;;;0.70;;
48042;SDS011;33988;47.992;8.820;2023-04-15T13:29:07;0.98;;;0.50;;
48042;SDS011;33988;47.992;8.820;2023-04-15T13:31:34;1.98;;;0.80;;
48042;SDS011;33988;47.992;8.820;2023-04-15T13:34:01;1.67;;;0.60;;
48042;SDS011;33988;47.992;8.820;2023-04-15T13:36:28;1.15;;;0.60;;
48042;SDS011;33988;47.992;8.820;2023-04-15T13:38:57;2.50;;;0.70;;
48042;SDS011;33988;47.992;8.820;2023-04-15T13:41:26;0.65;;;0.60;;
48042;SDS011;33988;47.992;8.820;2023-04-15T13:43:53;2.38;;;0.80;;
48042;SDS011;33988;47.992;8.820;2023-04-15T13:46:23;1.90;;;0.90;;
48042;SDS011;33988;47.992;8.820;2023-04-15T13:48:51;0.95;;;0.50;;
48042;SDS011;33988;47.992;8.820;2023-04-15T13:51:18;1.40;;;0.80;;
48042;SDS011;33988;47.992;8.820;2023-04-15T13:53:49;1.42;;;0.70;;
48042;SDS011;33988;47.992;8.820;2023-04-15T13:56:19;1.10;;;0.85;;
48042;SDS011;33988;47.992;8.820;2023-04-15T13:58:50;1.23;;;0.70;;
48042;SDS011;33988;47.992;8.820;2023-04-15T14:01:18;2.03;;;1.05;;
48042;SDS011;33988;47.992;8.820;2023-04-15T14:03:45;2.17;;;0.65;;
48042;SDS011;33988;47.992;8.820;2023-04-15T14:06:12;2.20;;;0.82;;
48042;SDS011;33988;47.992;8.820;2023-04-15T14:08:39;1.75;;;0.73;;
48042;SDS011;33988;47.992;8.820;2023-04-15T14:11:08;2.35;;;0.80;;
48042;SDS011;33988;47.992;8.820;2023-04-15T14:13:37;1.98;;;1.00;;
48042;SDS011;33988;47.992;8.820;2023-04-15T14:16:04;1.77;;;0.70;;
48042;SDS011;33988;47.992;8.820;2023-04-15T14:18:34;3.83;;;2.08;;
48042;SDS011;33988;47.992;8.820;2023-04-15T14:21:05;3.30;;;0.90;;
48042;SDS011;33988;47.992;8.820;2023-04-15T14:26:00;3.45;;;1.15;;
48042;SDS011;33988;47.992;8.820;2023-04-15T14:28:27;1.42;;;1.00;;
48042;SDS011;33988;47.992;8.820;2023-04-15T14:30:55;1.13;;;0.80;;
48042;SDS011;33988;47.992;8.820;2023-04-15T14:33:24;2.78;;;1.13;;
48042;SDS011;33988;47.992;8.820;2023-04-15T14:35:54;1.88;;;0.88;;
48042;SDS011;33988;47.992;8.820;2023-04-15T14:38:21;0.60;;;0.60;;
48042;SDS011;33988;47.992;8.820;2023-04-15T14:40:50;2.50;;;1.20;;
48042;SDS011;33988;47.992;8.820;2023-04-15T14:43:17;2.65;;;1.20;;
48042;SDS011;33988;47.992;8.820;2023-04-15T14:45:46;1.55;;;0.90;;
48042;SDS011;33988;47.992;8.820;2023-04-15T14:48:13;1.65;;;1.10;;
48042;SDS011;33988;47.992;8.820;2023-04-15T14:50:41;2.53;;;0.93;;
48042;SDS011;33988;47.992;8.820;2023-04-15T14:53:15;0.68;;;0.63;;
48042;SDS011;33988;47.992;8.820;2023-04-15T14:55:42;0.90;;;0.70;;
48042;SDS011;33988;47.992;8.820;2023-04-15T14:58:10;0.75;;;0.73;;
48042;SDS011;33988;47.992;8.820;2023-04-15T15:00:40;1.17;;;0.73;;
48042;SDS011;33988;47.992;8.820;2023-04-15T15:03:10;1.88;;;1.00;;
48042;SDS011;33988;47.992;8.820;2023-04-15T15:05:39;1.77;;;0.70;;
48042;SDS011;33988;47.992;8.820;2023-04-15T15:08:16;1.92;;;0.90;;
48042;SDS011;33988;47.992;8.820;2023-04-15T15:10:43;1.85;;;0.80;;
48042;SDS011;33988;47.992;8.820;2023-04-15T15:15:42;1.20;;;0.77;;
48042;SDS011;33988;47.992;8.820;2023-04-15T15:18:09;1.60;;;0.90;;
48042;SDS011;33988;47.992;8.820;2023-04-15T15:20:36;1.95;;;0.85;;
48042;SDS011;33988;47.992;8.820;2023-04-15T15:23:03;2.45;;;1.00;;
48042;SDS011;33988;47.992;8.820;2023-04-15T15:25:30;2.95;;;1.50;;
48042;SDS011;33988;47.992;8.820;2023-04-15T15:28:00;1.23;;;0.85;;
48042;SDS011;33988;47.992;8.820;2023-04-15T15:30:31;1.63;;;0.98;;
48042;SDS011;33988;47.992;8.820;2023-04-15T15:32:58;2.30;;;1.00;;
48042;SDS011;33988;47.992;8.820;2023-04-15T15:35:28;1.52;;;1.00;;
48042;SDS011;33988;47.992;8.820;2023-04-15T15:37:58;1.65;;;1.00;;
48042;SDS011;33988;47.992;8.820;2023-04-15T15:40:26;1.35;;;0.90;;